sensor_id;sensor_type;location;lat;lon;timestamp;P1;durP1;ratioP1;P2;durP2;ratioP2
1651;SDS011;823;49.028;8.454;2023-03-01T00:00:25;21.92;;;8.23;;
1651;SDS011;823;49.028;8.454;2023-03-01T00:05:26;26.60;;;8.20;;
1651;SDS011;823;49.028;8.454;2023-03-01T00:10:26;19.92;;;7.28;;
1651;SDS011;823;49.028;8.454;2023-03-01T00:15:26;18.70;;;7.60;;
1651;SDS011;823;49.028;8.454;2023-03-01T00:20:26;18.02;;;7.18;;
1651;SDS011;823;49.028;8.454;2023-03-01T00:25:27;20.95;;;7.85;;
1651;SDS011;823;49.028;8.454;2023-03-01T00:30:27;16.98;;;7.90;;
1651;SDS011;823;49.028;8.454;2023-03-01T00:35:27;17.63;;;8.07;;
1651;SDS011;823;49.028;8.454;2023-03-01T00:40:28;17.98;;;8.40;;
1651;SDS011;823;49.028;8.454;2023-03-01T00:45:29;21.40;;;9.10;;
1651;SDS011;823;49.028;8.454;2023-03-01T00:50:31;17.00;;;8.60;;
1651;SDS011;823;49.028;8.454;2023-03-01T00:55:31;18.83;;;7.67;;
1651;SDS011;823;49.028;8.454;2023-03-01T01:00:31;19.05;;;8.48;;
1651;SDS011;823;49.028;8.454;2023-03-01T01:05:34;18.27;;;7.15;;
1651;SDS011;823;49.028;8.454;2023-03-01T01:10:34;17.97;;;6.63;;
1651;SDS011;823;49.028;8.454;2023-03-01T01:15:35;16.00;;;7.40;;
1651;SDS011;823;49.028;8.454;2023-03-01T01:20:35;22.17;;;8.00;;
1651;SDS011;823;49.028;8.454;2023-03-01T01:25:37;18.00;;;7.40;;
1651;SDS011;823;49.028;8.454;2023-03-01T01:30:37;18.73;;;7.30;;
1651;SDS011;823;49.028;8.454;2023-03-01T01:35:37;17.60;;;7.53;;
1651;SDS011;823;49.028;8.454;2023-03-01T01:40:44;14.65;;;6.45;;
1651;SDS011;823;49.028;8.454;2023-03-01T01:45:46;20.10;;;8.00;;
1651;SDS011;823;49.028;8.454;2023-03-01T01:50:48;19.10;;;7.90;;
1651;SDS011;823;49.028;8.454;2023-03-01T01:55:56;18.27;;;7.30;;
1651;SDS011;823;49.028;8.454;2023-03-01T02:01:00;21.13;;;8.73;;
1651;SDS011;823;49.028;8.454;2023-03-01T02:06:06;16.37;;;8.03;;
1651;SDS011;823;49.028;8.454;2023-03-01T02:11:32;16.77;;;7.07;;
1651;SDS011;823;49.028;8.454;2023-03-01T02:16:32;16.67;;;7.43;;
1651;SDS011;823;49.028;8.454;2023-03-01T02:21:46;16.70;;;8.00;;
1651;SDS011;823;49.028;8.454;2023-03-01T02:26:54;14.03;;;7.43;;
1651;SDS011;823;49.028;8.454;2023-03-01T02:31:56;16.73;;;8.07;;
1651;SDS011;823;49.028;8.454;2023-03-01T02:37:00;16.90;;;6.50;;
1651;SDS011;823;49.028;8.454;2023-03-01T02:42:04;27.33;;;8.40;;
1651;SDS011;823;49.028;8.454;2023-03-01T02:47:06;29.33;;;9.70;;
1651;SDS011;823;49.028;8.454;2023-03-01T02:57:32;14.33;;;6.50;;
1651;SDS011;823;49.028;8.454;2023-03-01T03:02:35;19.60;;;8.60;;
1651;SDS011;823;49.028;8.454;2023-03-01T03:07:36;24.97;;;8.27;;
1651;SDS011;823;49.028;8.454;2023-03-01T03:12:39;20.77;;;9.27;;
1651;SDS011;823;49.028;8.454;2023-03-01T03:17:40;28.97;;;9.70;;
1651;SDS011;823;49.028;8.454;2023-03-01T03:22:41;18.40;;;7.80;;
1651;SDS011;823;49.028;8.454;2023-03-01T03:27:43;21.30;;;8.43;;
1651;SDS011;823;49.028;8.454;2023-03-01T03:32:45;19.33;;;8.07;;
1651;SDS011;823;49.028;8.454;2023-03-01T03:37:52;20.47;;;8.33;;
1651;SDS011;823;49.028;8.454;2023-03-01T03:43:06;28.33;;;10.10;;
1651;SDS011;823;49.028;8.454;2023-03-01T03:48:09;21.47;;;8.17;;
1651;SDS011;823;49.028;8.454;2023-03-01T03:53:11;23.67;;;9.67;;
1651;SDS011;823;49.028;8.454;2023-03-01T03:58:11;23.77;;;9.63;;
1651;SDS011;823;49.028;8.454;2023-03-01T04:03:13;17.63;;;7.50;;
1651;SDS011;823;49.028;8.454;2023-03-01T04:08:16;25.63;;;8.77;;
1651;SDS011;823;49.028;8.454;2023-03-01T04:13:20;23.20;;;9.10;;
1651;SDS011;823;49.028;8.454;2023-03-01T04:18:22;23.43;;;8.60;;
1651;SDS011;823;49.028;8.454;2023-03-01T04:23:24;28.87;;;10.03;;
1651;SDS011;823;49.028;8.454;2023-03-01T04:33:26;22.03;;;8.20;;
1651;SDS011;823;49.028;8.454;2023-03-01T04:38:26;20.97;;;8.73;;
1651;SDS011;823;49.028;8.454;2023-03-01T04:43:26;22.67;;;9.55;;
1651;SDS011;823;49.028;8.454;2023-03-01T04:48:27;21.35;;;8.73;;
1651;SDS011;823;49.028;8.454;2023-03-01T04:53:27;28.85;;;10.30;;
1651;SDS011;823;49.028;8.454;2023-03-01T04:58:28;20.80;;;10.10;;
1651;SDS011;823;49.028;8.454;2023-03-01T05:03:29;33.50;;;10.97;;
1651;SDS011;823;49.028;8.454;2023-03-01T05:08:29;24.80;;;10.00;;
1651;SDS011;823;49.028;8.454;2023-03-01T05:13:29;23.37;;;9.80;;
1651;SDS011;823;49.028;8.454;2023-03-01T05:18:30;23.98;;;9.02;;
1651;SDS011;823;49.028;8.454;2023-03-01T05:23:32;23.23;;;9.50;;
1651;SDS011;823;49.028;8.454;2023-03-01T05:28:33;29.60;;;9.67;;
1651;SDS011;823;49.028;8.454;2023-03-01T05:33:34;22.33;;;9.50;;
1651;SDS011;823;49.028;8.454;2023-03-01T05:38:35;28.53;;;10.00;;
1651;SDS011;823;49.028;8.454;2023-03-01T05:43:35;28.23;;;9.80;;
1651;SDS011;823;49.028;8.454;2023-03-01T05:48:35;27.53;;;10.60;;
1651;SDS011;823;49.028;8.454;2023-03-01T05:53:36;21.27;;;9.60;;
1651;SDS011;823;49.028;8.454;2023-03-01T05:58:36;29.25;;;10.80;;
1651;SDS011;823;49.028;8.454;2023-03-01T06:03:38;26.73;;;10.50;;
1651;SDS011;823;49.028;8.454;2023-03-01T06:08:38;24.57;;;10.60;;
1651;SDS011;823;49.028;8.454;2023-03-01T06:13:39;28.95;;;9.52;;
1651;SDS011;823;49.028;8.454;2023-03-01T06:18:42;29.03;;;10.73;;
1651;SDS011;823;49.028;8.454;2023-03-01T06:23:42;27.30;;;10.87;;
1651;SDS011;823;49.028;8.454;2023-03-01T06:28:42;27.77;;;10.02;;
1651;SDS011;823;49.028;8.454;2023-03-01T06:33:45;29.90;;;11.00;;
1651;SDS011;823;49.028;8.454;2023-03-01T06:38:46;29.63;;;10.50;;
1651;SDS011;823;49.028;8.454;2023-03-01T06:43:46;37.80;;;10.57;;
1651;SDS011;823;49.028;8.454;2023-03-01T06:48:46;27.67;;;9.75;;
1651;SDS011;823;49.028;8.454;2023-03-01T06:53:47;29.87;;;11.07;;
1651;SDS011;823;49.028;8.454;2023-03-01T06:58:47;25.73;;;10.17;;
1651;SDS011;823;49.028;8.454;2023-03-01T07:03:47;24.97;;;10.97;;
1651;SDS011;823;49.028;8.454;2023-03-01T07:08:48;33.20;;;10.90;;
1651;SDS011;823;49.028;8.454;2023-03-01T07:13:48;26.43;;;9.80;;
1651;SDS011;823;49.028;8.454;2023-03-01T07:18:49;27.93;;;10.00;;
1651;SDS011;823;49.028;8.454;2023-03-01T07:23:49;28.80;;;10.80;;
1651;SDS011;823;49.028;8.454;2023-03-01T07:28:50;27.67;;;11.00;;
1651;SDS011;823;49.028;8.454;2023-03-01T07:33:50;24.33;;;10.10;;
1651;SDS011;823;49.028;8.454;2023-03-01T07:38:50;34.03;;;10.57;;
1651;SDS011;823;49.028;8.454;2023-03-01T07:43:51;29.23;;;10.43;;
1651;SDS011;823;49.028;8.454;2023-03-01T07:48:52;26.73;;;10.13;;
1651;SDS011;823;49.028;8.454;2023-03-01T07:53:53;21.13;;;9.80;;
1651;SDS011;823;49.028;8.454;2023-03-01T07:58:53;28.00;;;11.90;;
1651;SDS011;823;49.028;8.454;2023-03-01T08:03:54;28.95;;;11.43;;
1651;SDS011;823;49.028;8.454;2023-03-01T08:08:54;24.63;;;10.13;;
1651;SDS011;823;49.028;8.454;2023-03-01T08:13:55;33.43;;;12.37;;
1651;SDS011;823;49.028;8.454;2023-03-01T08:18:56;34.87;;;12.30;;
1651;SDS011;823;49.028;8.454;2023-03-01T08:24:01;29.43;;;10.73;;
1651;SDS011;823;49.028;8.454;2023-03-01T08:29:02;26.63;;;11.00;;
1651;SDS011;823;49.028;8.454;2023-03-01T08:34:04;34.27;;;12.03;;
1651;SDS011;823;49.028;8.454;2023-03-01T08:39:07;27.90;;;12.20;;
1651;SDS011;823;49.028;8.454;2023-03-01T08:44:09;29.50;;;11.37;;
1651;SDS011;823;49.028;8.454;2023-03-01T08:49:12;32.20;;;11.10;;
1651;SDS011;823;49.028;8.454;2023-03-01T08:54:15;32.27;;;12.70;;
1651;SDS011;823;49.028;8.454;2023-03-01T08:59:18;32.00;;;11.90;;
1651;SDS011;823;49.028;8.454;2023-03-01T09:04:19;28.90;;;11.03;;
1651;SDS011;823;49.028;8.454;2023-03-01T09:09:19;34.53;;;13.00;;
1651;SDS011;823;49.028;8.454;2023-03-01T09:14:19;35.85;;;12.57;;
1651;SDS011;823;49.028;8.454;2023-03-01T09:19:20;26.37;;;11.90;;
1651;SDS011;823;49.028;8.454;2023-03-01T09:24:20;31.27;;;12.00;;
1651;SDS011;823;49.028;8.454;2023-03-01T09:29:22;35.87;;;12.80;;
1651;SDS011;823;49.028;8.454;2023-03-01T09:34:23;27.50;;;10.50;;
1651;SDS011;823;49.028;8.454;2023-03-01T09:39:24;22.10;;;10.67;;
1651;SDS011;823;49.028;8.454;2023-03-01T09:44:27;26.60;;;10.40;;
1651;SDS011;823;49.028;8.454;2023-03-01T09:49:33;34.70;;;12.63;;
1651;SDS011;823;49.028;8.454;2023-03-01T09:54:35;23.90;;;11.27;;
1651;SDS011;823;49.028;8.454;2023-03-01T09:59:38;27.50;;;12.18;;
1651;SDS011;823;49.028;8.454;2023-03-01T10:09:48;27.10;;;12.70;;
1651;SDS011;823;49.028;8.454;2023-03-01T10:15:10;28.23;;;12.93;;
1651;SDS011;823;49.028;8.454;2023-03-01T10:20:15;29.60;;;11.30;;
1651;SDS011;823;49.028;8.454;2023-03-01T10:30:38;26.50;;;12.13;;
1651;SDS011;823;49.028;8.454;2023-03-01T10:35:41;30.73;;;12.67;;
1651;SDS011;823;49.028;8.454;2023-03-01T10:40:54;28.25;;;12.48;;
1651;SDS011;823;49.028;8.454;2023-03-01T10:45:56;35.13;;;13.87;;
1651;SDS011;823;49.028;8.454;2023-03-01T11:01:01;26.33;;;11.90;;
1651;SDS011;823;49.028;8.454;2023-03-01T11:16:33;35.33;;;13.83;;
1651;SDS011;823;49.028;8.454;2023-03-01T11:21:54;26.33;;;12.33;;
1651;SDS011;823;49.028;8.454;2023-03-01T11:26:59;34.93;;;12.93;;
1651;SDS011;823;49.028;8.454;2023-03-01T11:32:06;46.50;;;13.00;;
1651;SDS011;823;49.028;8.454;2023-03-01T11:37:14;29.17;;;12.47;;
1651;SDS011;823;49.028;8.454;2023-03-01T11:48:23;25.07;;;13.20;;
1651;SDS011;823;49.028;8.454;2023-03-01T11:53:45;32.07;;;13.67;;
1651;SDS011;823;49.028;8.454;2023-03-01T12:09:42;27.67;;;13.47;;
1651;SDS011;823;49.028;8.454;2023-03-01T12:15:05;25.00;;;11.90;;
1651;SDS011;823;49.028;8.454;2023-03-01T12:36:34;33.27;;;13.40;;
1651;SDS011;823;49.028;8.454;2023-03-01T12:41:43;27.93;;;13.70;;
1651;SDS011;823;49.028;8.454;2023-03-01T12:57:42;33.37;;;13.87;;
1651;SDS011;823;49.028;8.454;2023-03-01T13:02:54;28.83;;;11.90;;
1651;SDS011;823;49.028;8.454;2023-03-01T13:13:26;26.80;;;13.30;;
1651;SDS011;823;49.028;8.454;2023-03-01T13:18:28;27.13;;;14.10;;
1651;SDS011;823;49.028;8.454;2023-03-01T13:23:34;27.40;;;12.03;;
1651;SDS011;823;49.028;8.454;2023-03-01T13:28:58;28.50;;;11.73;;
1651;SDS011;823;49.028;8.454;2023-03-01T13:34:01;24.93;;;12.57;;
1651;SDS011;823;49.028;8.454;2023-03-01T13:44:34;31.87;;;12.03;;
1651;SDS011;823;49.028;8.454;2023-03-01T13:49:43;29.33;;;13.10;;
1651;SDS011;823;49.028;8.454;2023-03-01T13:54:47;30.27;;;12.20;;
1651;SDS011;823;49.028;8.454;2023-03-01T13:59:47;27.57;;;13.23;;
1651;SDS011;823;49.028;8.454;2023-03-01T14:04:57;25.57;;;12.70;;
1651;SDS011;823;49.028;8.454;2023-03-01T14:10:00;25.93;;;13.83;;
1651;SDS011;823;49.028;8.454;2023-03-01T14:15:07;27.10;;;13.13;;
1651;SDS011;823;49.028;8.454;2023-03-01T14:20:21;27.57;;;12.40;;
1651;SDS011;823;49.028;8.454;2023-03-01T14:25:27;28.87;;;11.53;;
1651;SDS011;823;49.028;8.454;2023-03-01T14:30:52;25.70;;;12.10;;
1651;SDS011;823;49.028;8.454;2023-03-01T14:36:02;26.67;;;11.77;;
1651;SDS011;823;49.028;8.454;2023-03-01T14:41:09;24.23;;;11.20;;
1651;SDS011;823;49.028;8.454;2023-03-01T14:46:26;27.67;;;12.33;;
1651;SDS011;823;49.028;8.454;2023-03-01T14:51:37;23.00;;;11.47;;
1651;SDS011;823;49.028;8.454;2023-03-01T14:56:45;24.97;;;11.23;;
1651;SDS011;823;49.028;8.454;2023-03-01T15:01:46;26.50;;;12.70;;
1651;SDS011;823;49.028;8.454;2023-03-01T15:06:47;28.00;;;12.17;;
1651;SDS011;823;49.028;8.454;2023-03-01T15:11:51;29.57;;;12.60;;
1651;SDS011;823;49.028;8.454;2023-03-01T15:16:51;24.43;;;12.07;;
1651;SDS011;823;49.028;8.454;2023-03-01T15:21:51;25.13;;;11.23;;
1651;SDS011;823;49.028;8.454;2023-03-01T15:26:53;26.20;;;11.90;;
1651;SDS011;823;49.028;8.454;2023-03-01T15:32:04;27.20;;;11.83;;
1651;SDS011;823;49.028;8.454;2023-03-01T15:37:15;23.83;;;10.50;;
1651;SDS011;823;49.028;8.454;2023-03-01T15:42:39;25.37;;;12.00;;
1651;SDS011;823;49.028;8.454;2023-03-01T15:47:39;23.90;;;11.33;;
1651;SDS011;823;49.028;8.454;2023-03-01T15:52:41;30.90;;;11.70;;
1651;SDS011;823;49.028;8.454;2023-03-01T15:57:42;22.27;;;12.00;;
1651;SDS011;823;49.028;8.454;2023-03-01T16:02:43;23.80;;;10.10;;
1651;SDS011;823;49.028;8.454;2023-03-01T16:07:43;25.60;;;9.90;;
1651;SDS011;823;49.028;8.454;2023-03-01T16:12:44;22.38;;;11.18;;
1651;SDS011;823;49.028;8.454;2023-03-01T16:17:45;34.27;;;12.13;;
1651;SDS011;823;49.028;8.454;2023-03-01T16:22:45;24.87;;;12.10;;
1651;SDS011;823;49.028;8.454;2023-03-01T16:27:47;23.77;;;10.90;;
1651;SDS011;823;49.028;8.454;2023-03-01T16:32:49;30.17;;;12.97;;
1651;SDS011;823;49.028;8.454;2023-03-01T16:37:50;23.30;;;11.93;;
1651;SDS011;823;49.028;8.454;2023-03-01T16:42:52;28.60;;;12.23;;
1651;SDS011;823;49.028;8.454;2023-03-01T16:47:55;25.43;;;11.77;;
1651;SDS011;823;49.028;8.454;2023-03-01T16:52:55;26.55;;;12.05;;
1651;SDS011;823;49.028;8.454;2023-03-01T16:57:55;27.37;;;11.00;;
1651;SDS011;823;49.028;8.454;2023-03-01T17:02:56;24.08;;;12.15;;
1651;SDS011;823;49.028;8.454;2023-03-01T17:07:56;25.98;;;12.30;;
1651;SDS011;823;49.028;8.454;2023-03-01T17:12:57;20.43;;;10.53;;
1651;SDS011;823;49.028;8.454;2023-03-01T17:17:57;22.48;;;11.13;;
1651;SDS011;823;49.028;8.454;2023-03-01T17:22:57;25.92;;;10.95;;
1651;SDS011;823;49.028;8.454;2023-03-01T17:27:58;21.00;;;9.83;;
1651;SDS011;823;49.028;8.454;2023-03-01T17:32:58;24.05;;;10.25;;
1651;SDS011;823;49.028;8.454;2023-03-01T17:37:59;23.67;;;10.48;;
1651;SDS011;823;49.028;8.454;2023-03-01T17:42:59;26.50;;;10.38;;
1651;SDS011;823;49.028;8.454;2023-03-01T17:47:59;20.35;;;10.27;;
1651;SDS011;823;49.028;8.454;2023-03-01T17:52:59;28.88;;;11.65;;
1651;SDS011;823;49.028;8.454;2023-03-01T17:58:00;25.53;;;9.87;;
1651;SDS011;823;49.028;8.454;2023-03-01T18:03:01;24.80;;;10.02;;
1651;SDS011;823;49.028;8.454;2023-03-01T18:08:01;24.90;;;10.47;;
1651;SDS011;823;49.028;8.454;2023-03-01T18:13:02;29.30;;;11.60;;
1651;SDS011;823;49.028;8.454;2023-03-01T18:18:03;28.33;;;12.77;;
1651;SDS011;823;49.028;8.454;2023-03-01T18:23:04;24.83;;;11.20;;
1651;SDS011;823;49.028;8.454;2023-03-01T18:28:05;27.00;;;10.27;;
1651;SDS011;823;49.028;8.454;2023-03-01T18:33:05;17.90;;;9.90;;
1651;SDS011;823;49.028;8.454;2023-03-01T18:38:06;23.60;;;11.38;;
1651;SDS011;823;49.028;8.454;2023-03-01T18:43:06;29.33;;;12.03;;
1651;SDS011;823;49.028;8.454;2023-03-01T18:48:07;27.20;;;11.83;;
1651;SDS011;823;49.028;8.454;2023-03-01T18:53:07;25.90;;;12.23;;
1651;SDS011;823;49.028;8.454;2023-03-01T18:58:08;22.30;;;10.77;;
1651;SDS011;823;49.028;8.454;2023-03-01T19:03:09;29.73;;;12.00;;
1651;SDS011;823;49.028;8.454;2023-03-01T19:08:10;24.27;;;10.83;;
1651;SDS011;823;49.028;8.454;2023-03-01T19:13:10;29.27;;;13.20;;
1651;SDS011;823;49.028;8.454;2023-03-01T19:18:10;27.55;;;11.93;;
1651;SDS011;823;49.028;8.454;2023-03-01T19:23:11;30.98;;;11.20;;
1651;SDS011;823;49.028;8.454;2023-03-01T19:28:11;31.52;;;13.02;;
1651;SDS011;823;49.028;8.454;2023-03-01T19:33:11;36.53;;;12.65;;
1651;SDS011;823;49.028;8.454;2023-03-01T19:38:11;28.40;;;12.55;;
1651;SDS011;823;49.028;8.454;2023-03-01T19:43:12;33.33;;;13.60;;
1651;SDS011;823;49.028;8.454;2023-03-01T19:48:12;32.03;;;12.70;;
1651;SDS011;823;49.028;8.454;2023-03-01T19:53:13;35.10;;;14.35;;
1651;SDS011;823;49.028;8.454;2023-03-01T19:58:14;29.93;;;12.53;;
1651;SDS011;823;49.028;8.454;2023-03-01T20:03:15;31.95;;;13.75;;
1651;SDS011;823;49.028;8.454;2023-03-01T20:08:15;36.08;;;12.55;;
1651;SDS011;823;49.028;8.454;2023-03-01T20:13:15;27.80;;;11.35;;
1651;SDS011;823;49.028;8.454;2023-03-01T20:18:16;27.80;;;11.07;;
1651;SDS011;823;49.028;8.454;2023-03-01T20:23:16;35.25;;;12.57;;
1651;SDS011;823;49.028;8.454;2023-03-01T20:28:18;24.23;;;10.50;;
1651;SDS011;823;49.028;8.454;2023-03-01T20:33:18;26.30;;;11.00;;
1651;SDS011;823;49.028;8.454;2023-03-01T20:38:19;33.70;;;11.00;;
1651;SDS011;823;49.028;8.454;2023-03-01T20:43:19;27.30;;;11.63;;
1651;SDS011;823;49.028;8.454;2023-03-01T20:48:19;27.83;;;11.20;;
1651;SDS011;823;49.028;8.454;2023-03-01T20:53:20;29.07;;;12.37;;
1651;SDS011;823;49.028;8.454;2023-03-01T20:58:20;28.95;;;11.52;;
1651;SDS011;823;49.028;8.454;2023-03-01T21:03:20;29.30;;;12.73;;
1651;SDS011;823;49.028;8.454;2023-03-01T21:08:21;30.77;;;11.82;;
1651;SDS011;823;49.028;8.454;2023-03-01T21:13:22;23.57;;;11.40;;
1651;SDS011;823;49.028;8.454;2023-03-01T21:18:23;30.43;;;12.80;;
1651;SDS011;823;49.028;8.454;2023-03-01T21:23:29;24.30;;;12.10;;
1651;SDS011;823;49.028;8.454;2023-03-01T21:28:31;26.27;;;10.70;;
1651;SDS011;823;49.028;8.454;2023-03-01T21:33:32;25.33;;;10.07;;
1651;SDS011;823;49.028;8.454;2023-03-01T21:38:37;24.90;;;10.30;;
1651;SDS011;823;49.028;8.454;2023-03-01T21:43:39;28.37;;;11.83;;
1651;SDS011;823;49.028;8.454;2023-03-01T21:48:42;32.40;;;11.13;;
1651;SDS011;823;49.028;8.454;2023-03-01T21:53:43;30.57;;;12.10;;
1651;SDS011;823;49.028;8.454;2023-03-01T21:58:44;30.70;;;12.93;;
1651;SDS011;823;49.028;8.454;2023-03-01T22:03:44;30.03;;;11.70;;
1651;SDS011;823;49.028;8.454;2023-03-01T22:08:48;29.07;;;12.67;;
1651;SDS011;823;49.028;8.454;2023-03-01T22:13:50;33.30;;;13.80;;
1651;SDS011;823;49.028;8.454;2023-03-01T22:18:52;30.57;;;12.67;;
1651;SDS011;823;49.028;8.454;2023-03-01T22:23:53;29.27;;;10.70;;
1651;SDS011;823;49.028;8.454;2023-03-01T22:28:55;29.27;;;12.00;;
1651;SDS011;823;49.028;8.454;2023-03-01T22:33:57;27.00;;;11.53;;
1651;SDS011;823;49.028;8.454;2023-03-01T22:38:57;33.47;;;11.67;;
1651;SDS011;823;49.028;8.454;2023-03-01T22:44:01;29.70;;;12.10;;
1651;SDS011;823;49.028;8.454;2023-03-01T22:49:01;38.10;;;15.07;;
1651;SDS011;823;49.028;8.454;2023-03-01T22:54:04;27.33;;;12.37;;
1651;SDS011;823;49.028;8.454;2023-03-01T22:59:06;38.87;;;13.77;;
1651;SDS011;823;49.028;8.454;2023-03-01T23:04:08;31.47;;;10.93;;
1651;SDS011;823;49.028;8.454;2023-03-01T23:09:08;31.60;;;12.83;;
1651;SDS011;823;49.028;8.454;2023-03-01T23:14:12;31.30;;;11.70;;
1651;SDS011;823;49.028;8.454;2023-03-01T23:19:13;32.33;;;13.93;;
1651;SDS011;823;49.028;8.454;2023-03-01T23:24:16;34.70;;;12.00;;
1651;SDS011;823;49.028;8.454;2023-03-01T23:29:17;33.50;;;14.13;;
1651;SDS011;823;49.028;8.454;2023-03-01T23:34:18;38.60;;;13.40;;
1651;SDS011;823;49.028;8.454;2023-03-01T23:39:19;30.13;;;13.67;;
1651;SDS011;823;49.028;8.454;2023-03-01T23:44:20;41.40;;;12.70;;
1651;SDS011;823;49.028;8.454;2023-03-01T23:49:21;38.70;;;13.40;;
1651;SDS011;823;49.028;8.454;2023-03-01T23:54:23;39.23;;;13.47;;
1651;SDS011;823;49.028;8.454;2023-03-01T23:59:23;35.43;;;13.20;;
